Time;durP1;ratioP1;P1;durP2;ratioP2;P2;SDS_P1;SDS_P2;PMS_P1;PMS_P2;Temp;Humidity;BMP_temperature;BMP_pressure;BME280_temperature;BME280_humidity;BME280_pressure;Samples;Min_cycle;Max_cycle;Signal;HPM_P1;HPM_P2
2023/09/09 00:01:21;;;;;;;44.77;41.07;;;18.60;99.90;;;;;;6092326;23;20439;-89
2023/09/09 00:03:47;;;;;;;30.50;28.17;;;18.80;99.90;;;;;;6093179;23;20714;-89
2023/09/09 00:06:13;;;;;;;30.33;27.92;;;18.50;99.90;;;;;;6067331;23;20703;-90
2023/09/09 00:08:40;;;;;;;38.10;35.03;;;18.60;99.90;;;;;;6069521;23;20373;-89
2023/09/09 00:11:06;;;;;;;41.22;37.85;;;18.70;99.90;;;;;;6091204;23;20710;-90
2023/09/09 00:13:32;;;;;;;37.50;34.55;;;18.50;99.90;;;;;;6068730;23;20385;-89
2023/09/09 00:15:57;;;;;;;43.07;39.67;;;18.50;99.90;;;;;;6091662;23;20396;-90
2023/09/09 00:18:23;;;;;;;42.85;39.42;;;18.40;99.90;;;;;;6093028;23;20412;-89
2023/09/09 00:20:49;;;;;;;36.78;33.83;;;18.50;99.90;;;;;;6092408;23;20850;-89
2023/09/09 00:23:14;;;;;;;30.63;28.13;;;18.80;99.90;;;;;;6067177;23;20704;-88
2023/09/09 00:25:41;;;;;;;20.63;19.03;;;18.40;99.90;;;;;;6069406;23;20684;-89
2023/09/09 00:28:09;;;;;;;21.97;20.17;;;18.50;99.90;;;;;;6091407;23;20379;-89
2023/09/09 00:30:36;;;;;;;24.85;22.85;;;18.30;99.90;;;;;;6093954;23;20372;-89
2023/09/09 00:33:01;;;;;;;25.97;23.90;;;18.60;99.90;;;;;;6067437;23;20369;-89
2023/09/09 00:35:27;;;;;;;26.73;24.52;;;18.20;99.90;;;;;;6092895;23;20548;-90
2023/09/09 00:37:54;;;;;;;35.50;32.65;;;18.10;99.90;;;;;;6068197;23;20373;-89
2023/09/09 00:40:20;;;;;;;25.23;23.30;;;18.50;99.90;;;;;;6068297;23;20385;-89
2023/09/09 00:42:45;;;;;;;29.08;26.88;;;18.10;99.90;;;;;;6068787;23;20888;-89
2023/09/09 00:45:11;;;;;;;27.10;24.90;;;18.10;99.90;;;;;;6067167;23;20376;-90
2023/09/09 00:47:38;;;;;;;34.20;31.60;;;18.30;99.90;;;;;;6092875;23;20521;-88
2023/09/09 00:50:08;;;;;;;41.05;37.65;;;18.50;99.90;;;;;;6066635;23;20712;-89
2023/09/09 00:52:36;;;;;;;33.53;30.83;;;18.10;99.90;;;;;;6093099;23;20806;-89
2023/09/09 00:55:02;;;;;;;31.85;29.35;;;18.10;99.90;;;;;;6091313;23;20397;-88
2023/09/09 00:57:27;;;;;;;39.33;36.22;;;18.10;99.90;;;;;;6092251;23;20468;-89
2023/09/09 00:59:53;;;;;;;31.67;29.20;;;18.10;99.90;;;;;;6092923;23;20385;-89
2023/09/09 01:02:19;;;;;;;30.93;28.50;;;18.00;99.90;;;;;;6067156;23;20722;-89
2023/09/09 01:04:44;;;;;;;32.40;29.63;;;18.70;99.90;;;;;;6092978;23;20883;-89
2023/09/09 01:07:11;;;;;;;32.60;30.00;;;18.00;99.90;;;;;;6090638;23;20372;-89
2023/09/09 01:09:37;;;;;;;32.70;29.98;;;18.40;99.90;;;;;;6068271;23;20381;-89
2023/09/09 01:12:03;;;;;;;37.73;34.70;;;18.20;99.90;;;;;;6091044;23;20377;-88
2023/09/09 01:14:30;;;;;;;32.25;29.70;;;17.90;99.90;;;;;;6092647;23;20384;-89
2023/09/09 01:16:56;;;;;;;32.90;30.40;;;17.90;99.90;;;;;;6068193;23;20377;-89
2023/09/09 01:19:27;;;;;;;36.50;33.47;;;17.90;99.90;;;;;;6067883;23;20683;-89
2023/09/09 01:21:54;;;;;;;31.15;28.75;;;17.90;99.90;;;;;;6068894;23;20373;-89
2023/09/09 01:24:20;;;;;;;29.45;27.15;;;18.20;99.90;;;;;;6090815;23;20379;-88
2023/09/09 01:26:46;;;;;;;35.78;32.90;;;17.80;99.90;;;;;;6093001;23;20920;-89
2023/09/09 01:29:12;;;;;;;28.88;26.73;;;17.80;99.90;;;;;;6091028;23;20759;-90
2023/09/09 01:31:38;;;;;;;30.17;27.92;;;17.70;99.90;;;;;;6068665;23;20369;-90
2023/09/09 01:34:04;;;;;;;25.83;23.80;;;17.60;99.90;;;;;;6068968;23;20384;-89
2023/09/09 01:36:30;;;;;;;26.15;24.05;;;17.70;99.90;;;;;;6094165;23;21179;-89
2023/09/09 01:38:56;;;;;;;34.60;31.80;;;17.60;99.90;;;;;;6070199;23;20377;-89
2023/09/09 01:41:22;;;;;;;32.75;30.15;;;17.70;99.90;;;;;;6092876;23;20399;-89
2023/09/09 01:43:48;;;;;;;29.25;26.95;;;17.60;99.90;;;;;;6095125;23;20440;-88
2023/09/09 01:46:13;;;;;;;31.92;29.52;;;17.30;99.90;;;;;;6092588;23;20435;-90
2023/09/09 01:48:39;;;;;;;41.70;38.17;;;17.70;99.90;;;;;;6095159;23;20383;-89
2023/09/09 01:51:06;;;;;;;34.17;31.48;;;17.50;99.90;;;;;;6068846;23;20392;-89
2023/09/09 01:53:31;;;;;;;33.38;30.77;;;17.60;99.90;;;;;;6094271;23;20400;-89
2023/09/09 01:55:58;;;;;;;32.03;29.55;;;17.90;99.90;;;;;;6094000;23;20407;-90
2023/09/09 01:58:24;;;;;;;31.90;29.42;;;17.50;99.90;;;;;;6093152;23;20459;-89
2023/09/09 02:00:49;;;;;;;32.13;29.65;;;17.90;99.90;;;;;;6119141;23;20467;-89
2023/09/09 02:03:15;;;;;;;33.70;31.03;;;17.50;99.90;;;;;;6092231;23;20384;-89
2023/09/09 02:05:41;;;;;;;32.80;30.30;;;17.50;99.90;;;;;;6094546;23;20404;-89
2023/09/09 02:08:06;;;;;;;30.77;28.37;;;17.50;99.90;;;;;;6092504;23;20380;-89
2023/09/09 02:10:32;;;;;;;28.92;26.80;;;17.70;99.90;;;;;;6094756;23;20857;-88
2023/09/09 02:12:58;;;;;;;32.45;30.05;;;17.70;99.90;;;;;;6068748;23;20703;-87
2023/09/09 02:15:24;;;;;;;32.37;29.97;;;17.60;99.90;;;;;;6069453;23;20404;-89
2023/09/09 02:17:49;;;;;;;29.50;27.23;;;17.40;99.90;;;;;;6070243;23;20924;-89
2023/09/09 02:20:15;;;;;;;27.77;25.67;;;17.40;99.90;;;;;;6068692;23;20432;-88
2023/09/09 02:22:40;;;;;;;29.38;27.17;;;17.30;99.90;;;;;;6094163;23;20368;-89
2023/09/09 02:25:08;;;;;;;30.73;28.43;;;17.40;99.90;;;;;;6092448;23;20381;-89
2023/09/09 02:27:34;;;;;;;29.88;27.67;;;17.40;99.90;;;;;;6094489;23;20455;-90
2023/09/09 02:30:01;;;;;;;26.30;24.25;;;17.60;99.90;;;;;;6068389;23;20397;-89
2023/09/09 02:32:27;;;;;;;32.55;30.00;;;17.30;99.90;;;;;;6094052;23;20777;-89
2023/09/09 02:34:52;;;;;;;31.63;29.23;;;17.60;99.90;;;;;;6069252;23;20471;-88
2023/09/09 02:37:21;;;;;;;28.92;26.73;;;17.30;99.90;;;;;;6092664;23;20372;-89
2023/09/09 02:39:48;;;;;;;30.10;27.75;;;17.30;99.90;;;;;;6070203;23;20392;-89
2023/09/09 02:42:17;;;;;;;23.95;22.05;;;17.60;99.90;;;;;;6092166;23;20432;-89
2023/09/09 02:44:43;;;;;;;25.30;23.35;;;17.20;99.90;;;;;;6093859;23;20375;-90
2023/09/09 02:47:10;;;;;;;23.58;21.77;;;17.40;99.90;;;;;;6068692;23;20775;-89
2023/09/09 02:49:36;;;;;;;27.17;25.08;;;17.20;99.90;;;;;;6094351;23;20453;-89
2023/09/09 02:52:03;;;;;;;23.95;22.15;;;17.20;99.90;;;;;;6093329;23;20373;-88
2023/09/09 02:54:28;;;;;;;25.40;23.50;;;17.20;99.90;;;;;;6068829;23;20412;-90
2023/09/09 02:56:54;;;;;;;27.30;25.25;;;17.30;99.90;;;;;;6070242;23;20380;-89
2023/09/09 02:59:19;;;;;;;26.20;24.13;;;17.10;99.90;;;;;;6091815;23;20391;-90
2023/09/09 03:01:45;;;;;;;27.58;25.45;;;17.10;99.90;;;;;;6070273;23;20456;-89
2023/09/09 03:04:11;;;;;;;22.90;21.10;;;17.50;99.90;;;;;;6067940;23;20380;-90
2023/09/09 03:06:37;;;;;;;21.65;19.95;;;17.10;99.90;;;;;;6093828;23;20369;-90
2023/09/09 03:09:03;;;;;;;23.65;21.70;;;17.00;99.90;;;;;;6068296;23;20375;-89
2023/09/09 03:11:29;;;;;;;22.50;20.80;;;17.00;99.90;;;;;;6069871;23;20397;-90
2023/09/09 03:13:54;;;;;;;22.20;20.40;;;17.00;99.90;;;;;;6069566;23;20380;-89
2023/09/09 03:16:20;;;;;;;23.10;21.35;;;17.30;99.90;;;;;;6092360;23;20494;-89
2023/09/09 03:18:46;;;;;;;22.40;20.60;;;17.10;99.90;;;;;;6093558;23;20417;-88
2023/09/09 03:21:11;;;;;;;27.23;25.02;;;16.90;99.90;;;;;;6091460;23;20368;-88
2023/09/09 03:23:37;;;;;;;27.30;25.00;;;16.80;99.90;;;;;;6093737;23;20711;-91
2023/09/09 03:26:04;;;;;;;25.60;23.70;;;16.90;99.90;;;;;;6091718;23;20377;-90
2023/09/09 03:28:30;;;;;;;23.63;21.83;;;17.10;99.90;;;;;;6093913;23;20435;-89
2023/09/09 03:30:58;;;;;;;26.20;24.10;;;16.90;99.90;;;;;;6092377;23;20397;-88
2023/09/09 03:33:26;;;;;;;24.73;22.83;;;16.70;99.90;;;;;;6068681;23;20384;-88
2023/09/09 03:35:52;;;;;;;24.15;22.30;;;16.80;99.90;;;;;;6093422;23;20400;-88
2023/09/09 03:38:20;;;;;;;25.90;23.90;;;16.80;99.90;;;;;;6118099;23;20905;-88
2023/09/09 03:40:46;;;;;;;25.58;23.48;;;16.70;99.90;;;;;;6093740;23;20380;-89
2023/09/09 03:43:12;;;;;;;29.10;26.77;;;17.20;99.90;;;;;;6090991;23;20373;-89
2023/09/09 03:45:38;;;;;;;24.97;23.17;;;17.00;99.90;;;;;;6093624;23;20377;-88
2023/09/09 03:48:04;;;;;;;17.40;16.10;;;16.90;99.90;;;;;;6092029;23;20373;-89
2023/09/09 03:50:31;;;;;;;17.80;16.50;;;16.60;99.90;;;;;;6068356;23;20381;-90
2023/09/09 03:52:56;;;;;;;19.67;18.17;;;16.40;99.90;;;;;;6093033;23;20710;-88
2023/09/09 03:55:22;;;;;;;22.70;20.90;;;17.00;99.90;;;;;;6091397;23;20405;-89
2023/09/09 03:57:48;;;;;;;19.75;18.13;;;16.80;99.90;;;;;;6093012;23;20381;-88
2023/09/09 04:00:14;;;;;;;34.10;30.47;;;16.40;99.90;;;;;;6067004;23;20375;-88
2023/09/09 04:02:40;;;;;;;54.80;27.20;;;16.40;99.90;;;;;;6093232;23;20381;-89
2023/09/09 04:05:07;;;;;;;23.42;21.63;;;16.40;99.90;;;;;;6090778;23;20814;-87
2023/09/09 04:07:35;;;;;;;23.27;21.67;;;16.30;99.90;;;;;;6069040;23;20508;-88
2023/09/09 04:10:02;;;;;;;23.98;21.75;;;16.30;99.90;;;;;;6092232;23;21013;-89
2023/09/09 04:12:27;;;;;;;34.58;27.10;;;16.50;99.90;;;;;;6091809;23;20782;-88
2023/09/09 04:14:53;;;;;;;53.33;30.87;;;16.20;99.90;;;;;;6092698;23;20434;-88
2023/09/09 04:17:19;;;;;;;27.60;23.55;;;16.20;99.90;;;;;;6115254;23;20456;-89
2023/09/09 04:19:44;;;;;;;23.87;22.00;;;16.20;99.90;;;;;;6092824;23;20471;-89
2023/09/09 04:22:10;;;;;;;23.65;21.85;;;16.50;99.90;;;;;;6091087;23;20377;-89
2023/09/09 04:24:36;;;;;;;23.57;21.77;;;16.50;99.90;;;;;;6068400;23;20377;-89
2023/09/09 04:27:02;;;;;;;22.75;21.05;;;16.10;99.90;;;;;;6090933;23;20386;-88
2023/09/09 04:29:28;;;;;;;20.50;18.98;;;16.50;99.90;;;;;;6092333;23;20898;-88
2023/09/09 04:31:53;;;;;;;19.83;18.42;;;16.10;99.90;;;;;;6068359;23;20388;-89
2023/09/09 04:34:19;;;;;;;23.47;21.67;;;16.60;99.90;;;;;;6066621;23;20369;-88
2023/09/09 04:36:45;;;;;;;20.95;19.30;;;16.10;99.90;;;;;;6092648;23;20455;-88
2023/09/09 04:39:13;;;;;;;19.63;18.23;;;16.00;99.90;;;;;;6090468;23;20376;-89
2023/09/09 04:41:42;;;;;;;25.52;23.42;;;16.00;99.90;;;;;;6089883;23;20372;-88
2023/09/09 04:44:08;;;;;;;17.98;16.67;;;16.30;99.90;;;;;;6067270;23;20384;-88
2023/09/09 04:46:34;;;;;;;20.85;19.35;;;15.40;99.90;;;;;;6068580;23;20906;-89
2023/09/09 04:49:00;;;;;;;21.65;20.05;;;16.00;99.90;;;;;;6091453;23;20376;-88
2023/09/09 04:51:25;;;;;;;23.08;21.35;;;16.30;99.90;;;;;;6091525;23;20876;-88
2023/09/09 04:53:52;;;;;;;24.00;22.20;;;16.00;99.90;;;;;;6092677;23;20441;-88
2023/09/09 04:56:17;;;;;;;22.67;20.88;;;15.70;99.90;;;;;;6066723;23;20518;-88
2023/09/09 04:58:43;;;;;;;22.52;20.65;;;16.10;99.90;;;;;;6091019;23;20369;-88
2023/09/09 05:01:09;;;;;;;21.60;19.90;;;16.00;99.90;;;;;;6090331;23;20380;-88
2023/09/09 05:03:35;;;;;;;22.00;20.30;;;16.10;99.90;;;;;;6092918;23;20857;-88
2023/09/09 05:06:01;;;;;;;25.25;23.20;;;16.20;99.90;;;;;;6066783;23;20387;-87
2023/09/09 05:08:26;;;;;;;21.88;20.20;;;15.80;99.90;;;;;;6068808;23;20368;-88
2023/09/09 05:10:52;;;;;;;21.40;19.80;;;16.30;99.90;;;;;;6094319;23;20463;-88
2023/09/09 05:13:18;;;;;;;21.87;20.07;;;16.30;99.90;;;;;;6068442;23;20388;-89
2023/09/09 05:15:43;;;;;;;22.35;20.55;;;15.80;99.90;;;;;;6094567;23;20404;-88
2023/09/09 05:18:09;;;;;;;24.23;22.30;;;15.80;99.90;;;;;;6068511;23;20404;-89
2023/09/09 05:20:35;;;;;;;29.97;27.53;;;15.80;99.90;;;;;;6070515;23;20471;-89
2023/09/09 05:23:00;;;;;;;23.23;21.43;;;15.80;99.90;;;;;;6092335;23;20373;-88
2023/09/09 05:25:26;;;;;;;22.63;20.77;;;16.00;99.90;;;;;;6094264;23;20376;-89
2023/09/09 05:27:52;;;;;;;29.90;27.30;;;15.80;99.90;;;;;;6093590;23;20388;-89
2023/09/09 05:30:17;;;;;;;27.80;25.50;;;16.10;99.90;;;;;;6093260;23;20372;-89
2023/09/09 05:32:43;;;;;;;29.90;27.33;;;16.10;99.90;;;;;;6062426;23;20523;-88
2023/09/09 05:35:12;;;;;;;28.97;26.47;;;16.40;99.90;;;;;;6089662;23;20400;-89
2023/09/09 05:37:39;;;;;;;26.33;24.15;;;15.90;99.90;;;;;;6069624;23;20397;-89
2023/09/09 05:40:06;;;;;;;26.08;23.90;;;16.00;99.90;;;;;;6091923;23;20455;-89
2023/09/09 05:42:31;;;;;;;21.75;20.05;;;16.00;99.90;;;;;;6092642;23;20373;-89
2023/09/09 05:44:57;;;;;;;24.97;22.87;;;16.10;99.90;;;;;;6092472;23;20404;-87
2023/09/09 05:47:23;;;;;;;26.48;24.38;;;16.20;99.90;;;;;;6093446;23;20876;-89
2023/09/09 05:49:49;;;;;;;26.98;24.80;;;16.30;99.90;;;;;;6069457;23;20392;-88
2023/09/09 05:52:14;;;;;;;20.73;19.07;;;16.20;99.90;;;;;;6092870;23;20368;-89
2023/09/09 05:54:40;;;;;;;22.83;21.13;;;16.50;99.90;;;;;;6094217;23;20427;-89
2023/09/09 05:57:05;;;;;;;23.57;21.47;;;16.50;99.90;;;;;;6092220;23;20853;-89
2023/09/09 05:59:32;;;;;;;26.48;24.38;;;17.10;99.90;;;;;;6070205;23;20408;-88
2023/09/09 06:01:57;;;;;;;23.85;22.02;;;16.80;99.90;;;;;;6068011;23;20696;-89
2023/09/09 06:04:23;;;;;;;19.07;17.43;;;16.90;99.90;;;;;;6094163;23;20408;-89
2023/09/09 06:06:49;;;;;;;27.25;25.00;;;17.10;99.90;;;;;;6069093;23;20546;-88
2023/09/09 06:09:15;;;;;;;27.15;24.95;;;17.50;99.90;;;;;;6069470;23;20416;-89
2023/09/09 06:11:41;;;;;;;30.75;28.08;;;17.40;99.90;;;;;;6070023;23;20381;-88
2023/09/09 06:14:06;;;;;;;27.20;24.97;;;17.00;99.90;;;;;;6087129;23;20397;-89
2023/09/09 06:16:32;;;;;;;27.70;25.40;;;17.40;99.90;;;;;;6064926;23;20409;-89
2023/09/09 06:18:58;;;;;;;32.53;29.80;;;17.50;99.90;;;;;;6062953;23;20425;-89
2023/09/09 06:21:25;;;;;;;34.22;31.42;;;18.10;99.90;;;;;;6065003;23;20465;-89
2023/09/09 06:23:50;;;;;;;39.13;35.92;;;18.20;99.90;;;;;;6087570;23;20708;-89
2023/09/09 06:26:16;;;;;;;41.07;37.40;;;18.00;99.90;;;;;;6088617;23;20394;-89
2023/09/09 06:28:42;;;;;;;41.92;38.22;;;18.10;99.90;;;;;;6064528;23;20700;-89
2023/09/09 06:31:07;;;;;;;49.63;45.20;;;18.60;99.90;;;;;;6087513;23;20374;-90
2023/09/09 06:33:34;;;;;;;40.15;36.70;;;18.40;99.90;;;;;;6089218;23;20418;-89
2023/09/09 06:35:59;;;;;;;56.55;51.42;;;18.50;99.90;;;;;;6086563;23;20793;-89
2023/09/09 06:38:25;;;;;;;55.58;50.67;;;18.70;99.90;;;;;;6089104;23;20843;-89
2023/09/09 06:40:51;;;;;;;69.23;62.80;;;18.80;99.90;;;;;;6063067;23;20697;-88
2023/09/09 06:43:21;;;;;;;59.53;54.28;;;19.30;99.90;;;;;;6064873;23;20843;-90
2023/09/09 06:45:47;;;;;;;56.35;51.58;;;19.20;99.90;;;;;;6064014;23;20390;-89
2023/09/09 06:48:17;;;;;;;63.20;57.53;;;19.30;99.90;;;;;;6063870;23;20421;-88
2023/09/09 06:50:49;;;;;;;66.13;60.13;;;19.40;99.90;;;;;;6065367;23;20468;-90
2023/09/09 06:53:15;;;;;;;72.70;66.00;;;20.00;99.90;;;;;;6087077;23;20397;-90
2023/09/09 06:55:44;;;;;;;69.95;63.20;;;19.80;99.90;;;;;;6064519;23;20409;-89
2023/09/09 06:58:12;;;;;;;69.07;62.92;;;20.10;99.90;;;;;;6062909;23;20415;-90
2023/09/09 07:00:38;;;;;;;74.68;67.80;;;20.30;99.90;;;;;;6088873;23;20378;-90
2023/09/09 07:03:04;;;;;;;67.93;61.70;;;20.20;99.90;;;;;;6063394;23;20493;-89
2023/09/09 07:05:31;;;;;;;78.07;70.57;;;20.40;99.90;;;;;;6087900;23;20477;-89
2023/09/09 07:07:56;;;;;;;87.00;78.50;;;20.50;99.90;;;;;;6064563;23;20879;-90
2023/09/09 07:10:22;;;;;;;90.93;82.10;;;20.60;99.90;;;;;;6062442;23;20374;-90
2023/09/09 07:12:49;;;;;;;87.60;78.90;;;21.30;99.90;;;;;;6090793;23;20414;-89
2023/09/09 07:15:15;;;;;;;94.97;85.22;;;20.90;99.90;;;;;;6067368;23;20464;-90
2023/09/09 07:17:46;;;;;;;90.67;81.57;;;21.00;99.90;;;;;;6069561;23;20373;-89
2023/09/09 07:20:12;;;;;;;85.55;76.68;;;21.10;99.90;;;;;;6091999;23;20472;-89
2023/09/09 07:22:38;;;;;;;92.35;82.80;;;21.20;99.90;;;;;;6068866;23;20373;-90
2023/09/09 07:25:05;;;;;;;89.13;80.03;;;21.30;99.90;;;;;;6069336;23;20451;-90
2023/09/09 07:27:31;;;;;;;91.80;82.53;;;21.50;99.90;;;;;;6066874;23;20388;-90
2023/09/09 07:29:57;;;;;;;98.63;88.85;;;21.60;99.90;;;;;;6069576;23;20706;-90
2023/09/09 07:32:22;;;;;;;98.63;89.00;;;21.70;99.90;;;;;;6090543;23;20458;-90
2023/09/09 07:34:49;;;;;;;109.43;98.53;;;21.90;99.90;;;;;;6069239;23;20405;-90
2023/09/09 07:37:15;;;;;;;99.07;89.07;;;22.10;99.90;;;;;;6067717;23;20377;-90
2023/09/09 07:39:50;;;;;;;96.72;87.35;;;22.20;99.90;;;;;;6068877;23;20401;-91
2023/09/09 07:42:16;;;;;;;101.45;91.70;;;22.50;99.90;;;;;;6068415;23;20466;-90
2023/09/09 07:44:43;;;;;;;98.00;88.50;;;22.50;99.90;;;;;;6067850;23;20413;-90
2023/09/09 07:47:09;;;;;;;89.45;81.00;;;22.60;99.90;;;;;;6092787;23;20376;-89
2023/09/09 07:49:35;;;;;;;90.70;82.20;;;22.70;99.90;;;;;;6090822;23;20404;-90
2023/09/09 07:52:02;;;;;;;88.23;80.03;;;22.80;99.90;;;;;;6093093;23;20369;-90
2023/09/09 07:54:31;;;;;;;97.50;88.57;;;23.00;99.90;;;;;;6090682;23;20403;-88
2023/09/09 07:56:58;;;;;;;87.25;79.22;;;23.10;99.90;;;;;;6068835;23;20471;-90
2023/09/09 07:59:28;;;;;;;83.78;76.28;;;23.20;99.90;;;;;;6091342;23;20419;-89
2023/09/09 08:01:54;;;;;;;84.97;77.18;;;23.30;99.90;;;;;;6091963;23;20372;-89
2023/09/09 08:04:20;;;;;;;80.07;72.75;;;23.40;99.90;;;;;;6092426;23;21150;-89
2023/09/09 08:06:46;;;;;;;76.87;69.87;;;23.50;99.90;;;;;;6090715;23;20416;-87
2023/09/09 08:09:13;;;;;;;72.18;65.65;;;23.60;99.90;;;;;;6092369;23;20411;-89
2023/09/09 08:11:39;;;;;;;62.00;56.47;;;23.70;99.90;;;;;;6090036;23;20369;-89
2023/09/09 08:14:04;;;;;;;65.80;59.83;;;24.10;99.90;;;;;;6092388;23;20384;-90
2023/09/09 08:16:30;;;;;;;63.58;57.65;;;24.10;99.90;;;;;;6091229;23;20401;-89
2023/09/09 08:18:57;;;;;;;62.45;56.90;;;24.00;99.90;;;;;;6068070;23;20773;-89
2023/09/09 08:21:23;;;;;;;63.38;57.55;;;24.10;99.90;;;;;;6068301;23;20413;-89
2023/09/09 08:23:48;;;;;;;60.55;55.15;;;24.20;99.90;;;;;;6090379;23;20854;-88
2023/09/09 08:26:14;;;;;;;58.37;53.07;;;24.40;99.90;;;;;;6068645;23;20381;-89
2023/09/09 08:28:40;;;;;;;61.05;55.60;;;24.40;99.90;;;;;;6066508;23;20354;-90
2023/09/09 08:31:06;;;;;;;59.08;53.70;;;24.40;99.90;;;;;;6068359;23;20865;-89
2023/09/09 08:33:31;;;;;;;52.87;48.17;;;24.40;99.90;;;;;;6066677;23;20916;-89
2023/09/09 08:36:02;;;;;;;55.85;50.78;;;24.60;99.90;;;;;;6092295;23;20411;-89
2023/09/09 08:38:30;;;;;;;60.03;54.55;;;24.50;99.90;;;;;;6091621;23;20463;-89
2023/09/09 08:41:00;;;;;;;56.55;51.35;;;24.50;99.90;;;;;;6091209;23;20379;-90
2023/09/09 08:43:46;;;;;;;55.53;50.67;;;24.50;99.90;;;;;;6068009;23;20417;-90
2023/09/09 08:46:19;;;;;;;55.83;50.83;;;24.50;99.90;;;;;;6066728;23;20381;-90
2023/09/09 08:48:48;;;;;;;54.57;49.57;;;24.50;99.90;;;;;;6092793;23;20381;-89
2023/09/09 08:51:15;;;;;;;55.45;50.47;;;24.40;99.90;;;;;;6091277;23;20456;-90
2023/09/09 08:53:42;;;;;;;55.65;50.72;;;24.60;99.90;;;;;;6068045;23;20376;-89
2023/09/09 08:56:10;;;;;;;53.42;48.70;;;24.70;99.90;;;;;;6091991;23;20404;-89
2023/09/09 08:58:36;;;;;;;47.97;43.75;;;24.70;99.90;;;;;;6066242;23;20920;-90
2023/09/09 09:01:02;;;;;;;46.70;42.72;;;25.00;99.90;;;;;;6068732;23;20680;-88
2023/09/09 09:03:28;;;;;;;45.45;41.45;;;24.90;99.90;;;;;;6090167;23;20873;-89
2023/09/09 09:05:54;;;;;;;44.53;40.60;;;25.10;99.90;;;;;;6091835;23;20377;-89
2023/09/09 09:08:20;;;;;;;43.83;40.10;;;25.10;99.90;;;;;;6090570;23;20388;-88
2023/09/09 09:10:49;;;;;;;43.23;39.43;;;25.40;99.90;;;;;;6067724;23;20717;-89
2023/09/09 09:13:15;;;;;;;37.03;33.85;;;25.30;99.90;;;;;;6091872;23;20718;-88
2023/09/09 09:15:44;;;;;;;33.67;30.77;;;25.60;99.90;;;;;;6066653;23;20396;-90
2023/09/09 09:18:09;;;;;;;32.95;30.05;;;25.60;99.90;;;;;;6092295;23;20388;-88
2023/09/09 09:20:36;;;;;;;33.47;30.47;;;25.50;99.90;;;;;;6090192;23;20412;-89
2023/09/09 09:23:05;;;;;;;32.42;29.63;;;25.60;99.90;;;;;;6092270;23;20379;-89
2023/09/09 09:25:44;;;;;;;33.83;30.80;;;25.60;99.90;;;;;;6090678;23;20376;-88
2023/09/09 09:28:11;;;;;;;32.78;29.95;;;25.70;99.90;;;;;;6067661;23;20369;-89
2023/09/09 09:30:37;;;;;;;35.50;32.47;;;25.80;99.90;;;;;;6068005;23;20388;-89
2023/09/09 09:33:03;;;;;;;34.17;31.17;;;25.90;99.90;;;;;;6090065;23;20376;-89
2023/09/09 09:35:30;;;;;;;31.93;29.17;;;26.00;99.90;;;;;;6067232;23;20396;-90
2023/09/09 09:38:07;;;;;;;31.17;28.40;;;26.10;99.90;;;;;;6066447;23;20710;-89
2023/09/09 09:40:34;;;;;;;29.98;27.13;;;26.20;99.90;;;;;;6092338;23;20372;-89
2023/09/09 09:42:59;;;;;;;26.83;24.43;;;26.20;96.80;;;;;;6066824;23;20369;-88
2023/09/09 09:45:26;;;;;;;26.98;24.67;;;26.30;99.00;;;;;;6092064;23;20885;-89
2023/09/09 09:47:53;;;;;;;26.00;23.70;;;26.50;99.90;;;;;;6067824;23;20380;-89
2023/09/09 09:50:28;;;;;;;25.00;22.77;;;26.70;98.80;;;;;;6090535;23;20384;-90
2023/09/09 09:53:02;;;;;;;24.80;22.60;;;26.80;93.50;;;;;;6092663;23;20385;-89
2023/09/09 09:55:29;;;;;;;25.30;23.13;;;26.80;96.70;;;;;;6091670;23;20396;-89
2023/09/09 09:57:57;;;;;;;24.67;22.48;;;27.10;92.80;;;;;;6094208;23;20380;-90
2023/09/09 10:00:23;;;;;;;28.60;26.00;;;27.30;93.40;;;;;;6092338;23;20675;-89
2023/09/09 10:02:55;;;;;;;27.63;25.23;;;27.60;84.40;;;;;;6068879;23;20381;-89
2023/09/09 10:05:22;;;;;;;27.52;25.08;;;27.90;89.30;;;;;;6084372;23;20432;-89
2023/09/09 10:08:01;;;;;;;27.40;25.05;;;28.50;85.50;;;;;;6092007;23;20537;-90
2023/09/09 10:10:29;;;;;;;27.70;25.33;;;28.60;81.90;;;;;;6094241;23;20376;-90
2023/09/09 10:13:09;;;;;;;28.17;25.80;;;29.10;81.90;;;;;;6091498;23;20824;-90
2023/09/09 10:15:36;;;;;;;26.02;23.95;;;29.50;67.90;;;;;;6096910;23;20476;-93
2023/09/09 10:18:11;;;;;;;25.20;23.00;;;30.00;66.90;;;;;;6069678;23;20380;-95
2023/09/09 10:20:39;;;;;;;25.92;23.83;;;30.40;64.40;;;;;;6066017;23;20475;-94
2023/09/09 10:23:05;;;;;;;22.02;20.08;;;30.70;64.40;;;;;;6072404;23;20379;-92
2023/09/09 10:25:31;;;;;;;16.70;15.10;;;31.00;58.90;;;;;;6069259;23;20848;-93
2023/09/09 10:27:57;;;;;;;16.88;15.38;;;31.30;55.50;;;;;;6072599;23;20369;-94
2023/09/09 10:30:24;;;;;;;19.17;17.58;;;31.50;58.40;;;;;;6070651;23;20761;-93
2023/09/09 10:32:50;;;;;;;17.25;15.70;;;31.80;53.80;;;;;;6072329;23;20373;-93
2023/09/09 10:35:17;;;;;;;18.63;17.10;;;31.90;57.40;;;;;;6070172;23;20448;-94
2023/09/09 10:37:44;;;;;;;18.73;17.17;;;32.00;51.90;;;;;;6071008;23;20424;-93
2023/09/09 10:40:11;;;;;;;19.05;17.42;;;32.10;50.50;;;;;;6071626;23;20421;-93
2023/09/09 10:42:39;;;;;;;16.95;15.52;;;32.20;51.50;;;;;;6070142;23;20379;-94
2023/09/09 10:45:25;;;;;;;17.17;15.63;;;32.30;53.60;;;;;;6071786;23;20451;-94
2023/09/09 10:47:53;;;;;;;15.70;14.40;;;32.60;50.70;;;;;;6069389;23;20383;-94
2023/09/09 10:50:20;;;;;;;16.13;14.73;;;32.90;49.90;;;;;;6071694;23;20376;-92
2023/09/09 10:52:45;;;;;;;16.55;15.10;;;33.10;51.30;;;;;;6070095;23;20439;-93
2023/09/09 10:55:15;;;;;;;14.10;12.90;;;33.20;53.10;;;;;;6070531;23;20901;-92
2023/09/09 10:57:42;;;;;;;15.07;13.77;;;33.30;53.20;;;;;;6071471;23;20377;-93
2023/09/09 11:00:27;;;;;;;12.80;11.73;;;33.30;47.40;;;;;;6069499;23;20376;-93
2023/09/09 11:02:53;;;;;;;13.93;12.83;;;33.40;50.80;;;;;;6071117;23;21139;-93
2023/09/09 11:05:21;;;;;;;10.85;10.02;;;33.40;48.80;;;;;;6091961;23;20376;-92
2023/09/09 11:07:46;;;;;;;12.07;11.10;;;33.60;49.70;;;;;;6094881;23;20384;-93
2023/09/09 11:10:16;;;;;;;10.73;9.80;;;33.70;46.80;;;;;;6070180;23;20788;-92
2023/09/09 11:12:58;;;;;;;12.45;11.15;;;33.80;49.00;;;;;;6069749;23;20387;-93
2023/09/09 11:15:25;;;;;;;10.98;10.02;;;33.90;47.90;;;;;;6095475;23;20396;-93
2023/09/09 11:17:51;;;;;;;12.63;11.52;;;34.10;46.80;;;;;;6069060;23;20373;-95
2023/09/09 11:20:20;;;;;;;11.25;10.25;;;34.10;46.60;;;;;;6071357;23;20385;-95
2023/09/09 11:22:46;;;;;;;10.30;9.32;;;34.40;47.30;;;;;;6069135;23;20384;-92
2023/09/09 11:25:15;;;;;;;10.25;9.35;;;34.50;47.00;;;;;;6070620;23;20380;-92
2023/09/09 11:27:41;;;;;;;9.35;8.63;;;34.40;46.90;;;;;;6070080;23;20448;-93
2023/09/09 11:30:07;;;;;;;10.97;10.07;;;34.70;46.50;;;;;;6069001;23;20786;-93
2023/09/09 11:32:33;;;;;;;8.77;8.02;;;34.70;43.70;;;;;;6069748;23;20433;-93
2023/09/09 11:34:58;;;;;;;7.87;7.17;;;34.70;47.10;;;;;;6092158;23;20408;-92
2023/09/09 11:37:27;;;;;;;10.60;9.52;;;34.80;46.20;;;;;;6070564;23;20388;-92
2023/09/09 11:39:54;;;;;;;8.98;8.27;;;34.80;44.60;;;;;;6063782;23;20518;-93
2023/09/09 11:42:22;;;;;;;8.07;7.28;;;34.80;44.70;;;;;;6070392;23;20449;-92
2023/09/09 11:44:48;;;;;;;8.40;7.63;;;34.90;46.60;;;;;;6069858;23;20388;-92
2023/09/09 11:47:16;;;;;;;8.75;7.85;;;35.00;43.80;;;;;;6093123;23;20985;-93
2023/09/09 11:49:46;;;;;;;8.90;8.00;;;35.00;44.10;;;;;;6070867;23;20384;-92
2023/09/09 11:52:17;;;;;;;8.07;7.32;;;34.80;43.60;;;;;;6068424;23;20381;-92
2023/09/09 11:54:44;;;;;;;8.75;8.05;;;34.70;43.60;;;;;;6070433;23;20369;-93
2023/09/09 11:57:10;;;;;;;8.10;7.30;;;35.00;44.90;;;;;;6092624;23;20452;-93
2023/09/09 11:59:44;;;;;;;7.63;6.93;;;35.30;44.10;;;;;;6094492;23;20452;-93
2023/09/09 12:02:23;;;;;;;7.95;7.25;;;35.40;44.30;;;;;;6069666;23;20443;-92
2023/09/09 12:04:57;;;;;;;6.40;5.90;;;35.50;41.90;;;;;;6068840;23;20834;-93
2023/09/09 12:07:28;;;;;;;7.30;6.68;;;35.70;46.00;;;;;;6070636;23;20380;-92
2023/09/09 12:09:55;;;;;;;7.22;6.50;;;35.90;43.00;;;;;;6068545;23;20410;-92
2023/09/09 12:12:21;;;;;;;6.93;6.00;;;36.20;43.10;;;;;;6069719;23;20862;-92
2023/09/09 12:14:48;;;;;;;7.70;7.00;;;36.40;42.20;;;;;;6068313;23;20377;-92
2023/09/09 12:17:14;;;;;;;7.57;6.88;;;36.60;41.20;;;;;;6093631;23;20389;-91
2023/09/09 12:19:39;;;;;;;7.03;6.43;;;36.90;41.20;;;;;;6069671;23;20383;-93
2023/09/09 12:22:06;;;;;;;6.67;5.90;;;36.90;40.60;;;;;;6092362;23;20381;-92
2023/09/09 12:24:41;;;;;;;7.80;7.18;;;36.90;43.30;;;;;;6069849;23;20373;-93
2023/09/09 12:27:07;;;;;;;7.93;7.22;;;37.10;39.30;;;;;;6068092;23;20858;-91